createdAt,value
2017-11-17T00:00:22.505Z,3.30
2017-11-17T00:02:50.979Z,3.30
2017-11-17T00:05:19.379Z,3.30
2017-11-17T00:07:48.058Z,3.30
2017-11-17T00:10:16.445Z,3.30
2017-11-17T00:12:44.859Z,3.30
2017-11-17T00:15:13.324Z,3.30
2017-11-17T00:17:41.705Z,3.30
2017-11-17T00:20:10.098Z,3.30
2017-11-17T00:22:39.050Z,3.30
2017-11-17T00:25:07.484Z,3.30
2017-11-17T00:27:35.883Z,3.30
2017-11-17T00:30:04.326Z,3.20
2017-11-17T00:32:32.718Z,3.30
2017-11-17T00:35:01.108Z,3.30
2017-11-17T00:37:30.364Z,3.20
2017-11-17T00:39:58.772Z,3.20
2017-11-17T00:42:27.169Z,3.30
2017-11-17T00:44:56.850Z,3.20
2017-11-17T00:47:25.268Z,3.20
2017-11-17T00:49:54.013Z,3.30
2017-11-17T00:52:22.643Z,3.20
2017-11-17T00:54:51.051Z,3.20
2017-11-17T00:57:19.471Z,3.30
2017-11-17T00:59:47.924Z,3.30
2017-11-17T01:02:16.332Z,3.30
2017-11-17T01:04:45.499Z,3.30
2017-11-17T01:07:14.018Z,3.30
2017-11-17T01:09:43.178Z,3.30
2017-11-17T01:12:11.571Z,3.30
2017-11-17T01:14:40.382Z,3.30
2017-11-17T01:17:09.553Z,3.30
2017-11-17T01:19:38.027Z,3.30
2017-11-17T01:22:06.570Z,3.30
2017-11-17T01:24:34.979Z,3.30
2017-11-17T01:27:03.400Z,3.30
2017-11-17T01:29:32.616Z,3.20
2017-11-17T01:32:01.781Z,3.20
2017-11-17T01:34:30.183Z,3.20
2017-11-17T01:36:59.561Z,3.20
2017-11-17T01:39:28.332Z,3.20
2017-11-17T01:41:56.801Z,3.20
2017-11-17T01:44:26.043Z,3.30
2017-11-17T01:46:55.206Z,3.20
2017-11-17T01:49:23.599Z,3.20
2017-11-17T01:51:52.656Z,3.20
2017-11-17T01:54:21.052Z,3.20
2017-11-17T01:56:49.496Z,3.20
2017-11-17T01:59:18.724Z,3.20
2017-11-17T02:01:47.152Z,3.20
2017-11-17T02:04:16.675Z,3.20
2017-11-17T02:06:46.168Z,3.30
2017-11-17T02:09:15.445Z,3.30
2017-11-17T02:11:43.878Z,3.20
2017-11-17T02:14:12.343Z,3.30
2017-11-17T02:16:41.545Z,3.30
2017-11-17T02:19:09.979Z,3.20
2017-11-17T02:21:38.522Z,3.20
2017-11-17T02:26:41.641Z,3.30
2017-11-17T02:29:10.152Z,3.30
2017-11-17T02:31:38.596Z,3.30
2017-11-17T02:34:07.097Z,3.30
2017-11-17T02:36:35.546Z,3.30
2017-11-17T02:39:04.060Z,3.40
2017-11-17T02:41:32.553Z,3.40
2017-11-17T02:44:01.010Z,3.30
2017-11-17T02:46:29.462Z,3.30
2017-11-17T02:48:58.061Z,3.30
2017-11-17T02:51:26.566Z,3.40
2017-11-17T02:53:55.413Z,3.30
2017-11-17T02:56:24.148Z,3.30
2017-11-17T02:58:52.608Z,3.40
2017-11-17T03:01:21.067Z,3.30
2017-11-17T03:03:49.666Z,3.30
2017-11-17T03:06:18.189Z,3.30
2017-11-17T03:08:46.610Z,3.40
2017-11-17T03:11:15.375Z,3.30
2017-11-17T03:13:44.566Z,3.30
2017-11-17T03:16:13.035Z,3.30
2017-11-17T03:18:41.542Z,3.30
2017-11-17T03:21:10.705Z,3.30
2017-11-17T03:23:39.112Z,3.30
2017-11-17T03:26:08.367Z,3.30
2017-11-17T03:28:36.849Z,3.30
2017-11-17T03:31:05.294Z,3.30
2017-11-17T03:33:33.793Z,3.30
2017-11-17T03:36:02.204Z,3.40
2017-11-17T03:38:30.588Z,3.30
2017-11-17T03:40:59.489Z,3.30
2017-11-17T03:43:27.935Z,3.30
2017-11-17T03:45:56.378Z,3.30
2017-11-17T03:48:24.822Z,3.40
2017-11-17T03:50:53.217Z,3.40
2017-11-17T03:53:22.433Z,3.40
2017-11-17T03:55:51.747Z,3.40
2017-11-17T03:58:20.128Z,3.40
2017-11-17T04:00:48.539Z,3.40
2017-11-17T04:03:17.150Z,3.40
2017-11-17T04:05:45.911Z,3.40
2017-11-17T04:08:14.327Z,3.40
2017-11-17T04:10:42.798Z,3.40
2017-11-17T04:13:11.244Z,3.40
2017-11-17T04:15:39.653Z,3.40
2017-11-17T04:18:08.159Z,3.30
2017-11-17T04:20:37.320Z,3.40
2017-11-17T04:23:05.758Z,3.40
2017-11-17T04:25:34.613Z,3.40
2017-11-17T04:28:03.033Z,3.40
2017-11-17T04:30:31.636Z,3.40
2017-11-17T04:33:00.093Z,3.40
2017-11-17T04:35:28.508Z,3.40
2017-11-17T04:37:57.723Z,3.40
2017-11-17T04:40:26.219Z,3.40
2017-11-17T04:42:54.650Z,3.40
2017-11-17T04:45:23.097Z,3.40
2017-11-17T04:47:51.729Z,3.40
2017-11-17T04:50:20.183Z,3.40
2017-11-17T04:52:48.574Z,3.40
2017-11-17T04:55:17.311Z,3.40
2017-11-17T04:57:46.801Z,3.40
2017-11-17T05:00:15.262Z,3.40
2017-11-17T05:02:43.862Z,3.40
2017-11-17T05:05:12.276Z,3.40
2017-11-17T05:07:41.449Z,3.40
2017-11-17T05:10:10.699Z,3.40
2017-11-17T05:12:39.122Z,3.40
2017-11-17T05:15:07.554Z,3.40
2017-11-17T05:17:36.295Z,3.50
2017-11-17T05:20:04.741Z,3.50
2017-11-17T05:22:33.117Z,3.50
2017-11-17T05:25:01.547Z,3.40
2017-11-17T05:27:30.691Z,3.50
2017-11-17T05:29:59.080Z,3.50
2017-11-17T05:32:27.698Z,3.50
2017-11-17T05:34:56.126Z,3.60
2017-11-17T05:37:24.516Z,3.50
2017-11-17T05:39:52.959Z,3.50
2017-11-17T05:42:21.360Z,3.50
2017-11-17T05:44:49.958Z,3.50
2017-11-17T05:47:18.536Z,3.50
2017-11-17T05:49:46.939Z,3.50
2017-11-17T05:52:15.351Z,3.50
2017-11-17T05:54:44.739Z,3.40
2017-11-17T05:57:13.184Z,3.40
2017-11-17T05:59:41.874Z,3.40
2017-11-17T06:02:10.325Z,3.50
2017-11-17T06:04:38.733Z,3.50
2017-11-17T06:07:07.124Z,3.50
2017-11-17T06:09:35.945Z,3.50
2017-11-17T06:12:04.429Z,3.40
2017-11-17T06:14:33.589Z,3.40
2017-11-17T06:17:02.054Z,3.40
2017-11-17T06:19:30.535Z,3.40
2017-11-17T06:21:59.000Z,3.50
2017-11-17T06:24:27.601Z,3.50
2017-11-17T06:26:56.014Z,3.50
2017-11-17T06:29:24.428Z,3.50
2017-11-17T06:31:52.895Z,3.50
2017-11-17T06:34:22.509Z,3.50
2017-11-17T06:36:50.953Z,3.40
2017-11-17T06:39:19.409Z,3.40
2017-11-17T06:41:47.904Z,3.50
2017-11-17T06:44:16.353Z,3.40
2017-11-17T06:46:45.107Z,3.50
2017-11-17T06:49:14.318Z,3.50
2017-11-17T06:51:42.844Z,3.50
2017-11-17T06:54:11.316Z,3.50
2017-11-17T06:56:39.730Z,3.50
2017-11-17T06:59:10.565Z,3.50
2017-11-17T07:01:39.557Z,3.50
2017-11-17T07:04:07.974Z,3.50
2017-11-17T07:06:36.381Z,3.50
2017-11-17T07:09:04.857Z,3.50
2017-11-17T07:11:33.439Z,3.50
2017-11-17T07:14:01.824Z,3.50
2017-11-17T07:16:30.375Z,3.50
2017-11-17T07:18:58.810Z,3.50
2017-11-17T07:21:27.236Z,3.50
2017-11-17T07:23:55.776Z,3.60
2017-11-17T07:26:24.195Z,3.50
2017-11-17T07:28:53.366Z,3.50
2017-11-17T07:31:21.839Z,3.60
2017-11-17T07:33:50.257Z,3.50
2017-11-17T07:36:18.699Z,3.50
2017-11-17T07:38:47.288Z,3.50
2017-11-17T07:41:15.734Z,3.50
2017-11-17T07:43:44.134Z,3.60
2017-11-17T07:46:12.610Z,3.60
2017-11-17T07:48:42.066Z,3.60
2017-11-17T07:51:10.469Z,3.60
2017-11-17T07:53:39.149Z,3.70
2017-11-17T07:56:07.587Z,3.60
2017-11-17T07:58:36.858Z,3.60
2017-11-17T08:01:05.372Z,3.60
2017-11-17T08:03:33.915Z,3.70
2017-11-17T08:06:02.350Z,3.60
2017-11-17T08:08:30.807Z,3.70
2017-11-17T08:10:59.994Z,3.70
2017-11-17T08:13:29.276Z,3.80
2017-11-17T08:15:57.810Z,3.80
2017-11-17T08:18:31.359Z,3.80
2017-11-17T08:20:59.920Z,3.80
2017-11-17T08:23:28.335Z,3.80
2017-11-17T08:25:56.785Z,3.70
2017-11-17T08:28:25.757Z,3.80
2017-11-17T08:30:54.164Z,3.80
2017-11-17T08:33:22.588Z,3.80
2017-11-17T08:35:52.024Z,3.90
2017-11-17T08:38:21.675Z,3.90
2017-11-17T08:40:50.185Z,3.90
2017-11-17T08:43:20.987Z,3.90
2017-11-17T08:45:49.406Z,3.90
2017-11-17T08:48:18.670Z,3.90
2017-11-17T08:50:47.405Z,4.00
2017-11-17T08:53:15.845Z,4.10
2017-11-17T08:55:44.338Z,4.10
2017-11-17T08:58:13.668Z,4.30
2017-11-17T09:00:42.170Z,4.20
2017-11-17T09:03:10.722Z,4.20
2017-11-17T09:05:40.273Z,4.10
2017-11-17T09:08:10.024Z,4.20
2017-11-17T09:10:39.848Z,4.00
2017-11-17T09:13:09.098Z,4.00
2017-11-17T09:15:37.552Z,4.00
2017-11-17T09:18:06.004Z,4.00
2017-11-17T09:20:35.418Z,4.10
2017-11-17T09:23:04.808Z,4.10
2017-11-17T09:25:34.812Z,4.20
2017-11-17T09:28:04.796Z,4.30
2017-11-17T09:30:33.241Z,4.20
2017-11-17T09:33:01.688Z,4.10
2017-11-17T09:35:31.231Z,4.10
2017-11-17T09:37:59.724Z,4.10
2017-11-17T09:40:28.509Z,4.20
2017-11-17T09:42:57.018Z,4.20
2017-11-17T09:45:25.561Z,4.30
2017-11-17T09:47:53.982Z,4.30
2017-11-17T09:50:23.566Z,4.40
2017-11-17T09:52:53.927Z,4.60
2017-11-17T09:55:22.438Z,4.50
2017-11-17T09:57:51.118Z,4.50
2017-11-17T10:00:19.598Z,4.50
2017-11-17T10:02:48.852Z,4.70
2017-11-17T10:05:17.562Z,4.70
2017-11-17T10:07:46.237Z,4.70
2017-11-17T10:10:14.719Z,4.60
2017-11-17T10:12:43.657Z,4.60
2017-11-17T10:15:12.256Z,4.50
2017-11-17T10:17:41.708Z,4.50
2017-11-17T10:20:10.394Z,4.50
2017-11-17T10:22:39.684Z,4.50
2017-11-17T10:25:09.094Z,4.50
2017-11-17T10:27:37.822Z,4.60
2017-11-17T10:30:06.267Z,4.80
2017-11-17T10:32:36.178Z,4.70
2017-11-17T10:35:04.645Z,4.70
2017-11-17T10:37:33.113Z,4.70
2017-11-17T10:40:01.573Z,4.80
2017-11-17T10:42:30.104Z,4.90
2017-11-17T10:44:58.900Z,5.00
2017-11-17T10:47:28.220Z,4.90
2017-11-17T10:49:57.738Z,4.80
2017-11-17T10:52:26.262Z,4.80
2017-11-17T10:54:54.709Z,4.80
2017-11-17T10:57:23.396Z,4.80
2017-11-17T10:59:52.367Z,4.90
2017-11-17T11:02:20.844Z,5.00
2017-11-17T11:04:49.630Z,5.00
2017-11-17T11:07:18.191Z,5.00
2017-11-17T11:09:46.788Z,4.90
2017-11-17T11:12:16.158Z,5.30
2017-11-17T11:14:47.787Z,5.30
2017-11-17T11:17:16.346Z,5.40
2017-11-17T11:19:45.022Z,5.30
2017-11-17T11:22:14.240Z,5.40
2017-11-17T11:24:42.728Z,5.40
2017-11-17T11:27:13.054Z,5.40
2017-11-17T11:29:41.469Z,5.60
2017-11-17T11:32:10.149Z,5.70
2017-11-17T11:34:39.709Z,5.70
2017-11-17T11:37:08.291Z,5.70
2017-11-17T11:39:37.576Z,5.40
2017-11-17T11:42:07.296Z,5.40
2017-11-17T11:44:35.816Z,5.40
2017-11-17T11:47:05.112Z,5.40
2017-11-17T11:49:34.411Z,5.50
2017-11-17T11:52:03.698Z,5.60
2017-11-17T11:54:32.153Z,5.60
2017-11-17T11:57:01.678Z,5.60
2017-11-17T11:59:30.126Z,5.60
2017-11-17T12:02:00.228Z,5.80
2017-11-17T12:04:33.271Z,5.80
2017-11-17T12:07:02.133Z,5.80
2017-11-17T12:09:32.288Z,5.80
2017-11-17T12:12:01.181Z,5.70
2017-11-17T12:14:30.716Z,5.80
2017-11-17T12:16:59.251Z,5.80
2017-11-17T12:19:30.615Z,5.80
2017-11-17T12:21:59.087Z,5.60
2017-11-17T12:24:30.398Z,5.70
2017-11-17T12:27:02.316Z,5.70
2017-11-17T12:29:31.909Z,5.70
2017-11-17T12:32:02.099Z,5.60
2017-11-17T12:34:31.292Z,5.70
2017-11-17T12:37:02.814Z,5.70
2017-11-17T12:39:33.345Z,5.70
2017-11-17T12:42:02.830Z,5.70
2017-11-17T12:44:32.040Z,5.80
2017-11-17T12:47:02.890Z,5.70
2017-11-17T12:49:31.598Z,5.90
2017-11-17T12:52:03.308Z,5.90
2017-11-17T12:54:32.876Z,6.10
2017-11-17T12:57:05.174Z,6.20
2017-11-17T12:59:33.572Z,6.50
2017-11-17T13:02:02.911Z,6.30
2017-11-17T13:04:32.527Z,6.30
2017-11-17T13:07:02.521Z,6.30
2017-11-17T13:09:32.440Z,6.20
2017-11-17T13:12:01.307Z,6.20
2017-11-17T13:14:32.781Z,6.10
2017-11-17T13:17:06.292Z,6.30
2017-11-17T13:19:36.751Z,6.30
2017-11-17T13:22:06.655Z,6.30
2017-11-17T13:24:35.334Z,6.50
2017-11-17T13:27:04.790Z,6.60
2017-11-17T13:29:34.214Z,6.60
2017-11-17T13:32:04.480Z,6.40
2017-11-17T13:34:35.071Z,6.20
2017-11-17T13:37:05.434Z,6.30
2017-11-17T13:39:36.130Z,6.30
2017-11-17T13:42:09.903Z,6.30
2017-11-17T13:44:42.463Z,6.20
2017-11-17T13:47:12.289Z,6.20
2017-11-17T13:49:40.754Z,6.30
2017-11-17T13:52:09.994Z,6.30
2017-11-17T13:54:38.986Z,6.30
2017-11-17T13:57:09.052Z,6.30
2017-11-17T13:59:39.808Z,6.30
2017-11-17T14:02:08.265Z,6.30
2017-11-17T14:04:36.944Z,6.30
2017-11-17T14:07:06.403Z,6.40
2017-11-17T14:09:34.864Z,6.40
2017-11-17T14:12:03.380Z,6.30
2017-11-17T14:14:32.281Z,6.30
2017-11-17T14:17:00.757Z,6.30
2017-11-17T14:19:30.213Z,6.40
2017-11-17T14:21:59.996Z,6.40
2017-11-17T14:24:28.500Z,6.40
2017-11-17T14:26:57.769Z,6.40
2017-11-17T14:29:26.257Z,6.40
2017-11-17T14:31:54.696Z,6.30
2017-11-17T14:34:23.189Z,6.30
2017-11-17T14:36:51.843Z,6.30
2017-11-17T14:39:20.321Z,6.30
2017-11-17T14:41:48.759Z,6.40
2017-11-17T14:44:19.304Z,6.30
2017-11-17T14:46:47.756Z,6.30
2017-11-17T14:49:16.965Z,6.30
2017-11-17T14:51:49.901Z,6.20
2017-11-17T14:54:18.395Z,6.20
2017-11-17T14:56:46.855Z,6.20
2017-11-17T14:59:19.199Z,6.20
2017-11-17T15:01:48.398Z,6.10
2017-11-17T15:04:17.480Z,6.20
2017-11-17T15:06:45.973Z,6.20
2017-11-17T15:09:14.462Z,6.20
2017-11-17T15:11:42.902Z,6.20
2017-11-17T15:14:12.192Z,6.20
2017-11-17T15:16:41.022Z,6.20
2017-11-17T15:19:09.500Z,6.20
2017-11-17T15:21:38.643Z,6.20
2017-11-17T15:24:07.167Z,6.10
2017-11-17T15:26:36.450Z,6.10
2017-11-17T15:29:05.884Z,6.10
2017-11-17T15:31:34.367Z,6.10
2017-11-17T15:34:02.861Z,6.20
2017-11-17T15:36:31.759Z,6.10
2017-11-17T15:39:01.554Z,6.10
2017-11-17T15:41:31.876Z,6.10
2017-11-17T15:44:00.380Z,6.00
2017-11-17T15:46:29.680Z,6.00
2017-11-17T15:48:58.137Z,6.00
2017-11-17T15:51:27.558Z,6.00
2017-11-17T15:53:56.034Z,6.00
2017-11-17T15:56:24.583Z,6.10
2017-11-17T15:58:54.219Z,6.00
2017-11-17T16:01:23.557Z,5.90
2017-11-17T16:03:52.867Z,6.00
2017-11-17T16:06:21.673Z,6.00
2017-11-17T16:08:50.184Z,6.00
2017-11-17T16:11:18.694Z,6.00
2017-11-17T16:13:47.268Z,6.00
2017-11-17T16:16:16.655Z,6.10
2017-11-17T16:18:46.493Z,6.00
2017-11-17T16:21:15.111Z,6.00
2017-11-17T16:23:45.545Z,6.00
2017-11-17T16:26:14.743Z,5.90
2017-11-17T16:28:44.160Z,6.00
2017-11-17T16:31:12.583Z,6.00
2017-11-17T16:33:41.018Z,6.10
2017-11-17T16:36:09.625Z,6.10
2017-11-17T16:38:38.095Z,6.10
2017-11-17T16:41:06.810Z,6.00
2017-11-17T16:43:35.360Z,6.00
2017-11-17T16:46:04.788Z,6.00
2017-11-17T16:48:34.159Z,6.00
2017-11-17T16:51:02.640Z,5.90
2017-11-17T16:53:31.899Z,6.00
2017-11-17T16:56:01.162Z,6.00
2017-11-17T16:58:29.821Z,6.00
2017-11-17T17:00:58.317Z,5.90
2017-11-17T17:03:27.416Z,6.00
2017-11-17T17:05:56.490Z,6.00
2017-11-17T17:08:25.736Z,6.00
2017-11-17T17:10:54.221Z,6.00
2017-11-17T17:13:23.476Z,6.00
2017-11-17T17:15:52.722Z,6.00
2017-11-17T17:18:21.173Z,6.00
2017-11-17T17:20:49.772Z,6.00
2017-11-17T17:23:18.196Z,6.00
2017-11-17T17:25:47.442Z,6.00
2017-11-17T17:28:15.910Z,6.00
2017-11-17T17:30:44.543Z,6.00
2017-11-17T17:33:13.056Z,5.90
2017-11-17T17:35:42.458Z,5.90
2017-11-17T17:38:10.877Z,5.90
2017-11-17T17:40:39.282Z,5.90
2017-11-17T17:43:07.808Z,6.00
2017-11-17T17:45:37.168Z,6.00
2017-11-17T17:48:05.646Z,6.00
2017-11-17T17:50:34.134Z,6.00
2017-11-17T17:53:02.549Z,5.90
2017-11-17T17:55:31.453Z,5.90
2017-11-17T17:57:59.943Z,5.90
2017-11-17T18:00:28.465Z,5.90
2017-11-17T18:02:57.050Z,5.80
2017-11-17T18:05:25.530Z,5.80
2017-11-17T18:07:53.993Z,5.80
2017-11-17T18:10:23.391Z,5.80
2017-11-17T18:12:51.835Z,5.90
2017-11-17T18:17:55.303Z,6.00
2017-11-17T18:20:23.742Z,5.90
2017-11-17T18:22:52.349Z,5.90
2017-11-17T18:25:20.793Z,5.90
2017-11-17T18:27:49.233Z,6.00
2017-11-17T18:30:17.686Z,6.10
2017-11-17T18:32:46.541Z,6.10
2017-11-17T18:35:15.598Z,6.00
2017-11-17T18:37:44.019Z,6.00
2017-11-17T18:40:12.481Z,6.00
2017-11-17T18:42:41.741Z,6.00
2017-11-17T18:45:10.237Z,6.00
2017-11-17T18:47:39.008Z,6.00
2017-11-17T18:50:07.412Z,6.00
2017-11-17T18:52:35.837Z,6.00
2017-11-17T18:55:04.442Z,6.00
2017-11-17T18:57:32.863Z,6.00
2017-11-17T19:00:01.281Z,6.00
2017-11-17T19:02:29.716Z,6.00
2017-11-17T19:04:58.139Z,6.00
2017-11-17T19:07:26.635Z,5.90
2017-11-17T19:09:55.392Z,5.90
2017-11-17T19:12:23.864Z,6.00
2017-11-17T19:14:53.083Z,6.00
2017-11-17T19:17:21.555Z,6.00
2017-11-17T19:19:49.982Z,6.00
2017-11-17T19:22:18.384Z,6.00
2017-11-17T19:24:47.297Z,5.90
2017-11-17T19:27:16.454Z,5.90
2017-11-17T19:29:44.879Z,5.90
2017-11-17T19:32:13.681Z,5.80
2017-11-17T19:34:42.128Z,5.80
2017-11-17T19:37:10.538Z,5.80
2017-11-17T19:39:39.431Z,5.80
2017-11-17T19:42:07.811Z,5.80
2017-11-17T19:44:36.277Z,5.90
2017-11-17T19:47:04.762Z,5.80
2017-11-17T19:49:33.156Z,5.80
2017-11-17T19:52:01.563Z,5.70
2017-11-17T19:54:30.048Z,5.70
2017-11-17T19:56:58.464Z,5.70
2017-11-17T19:59:27.625Z,5.70
2017-11-17T20:01:56.359Z,5.80
2017-11-17T20:04:25.541Z,5.80
2017-11-17T20:06:54.701Z,5.90
2017-11-17T20:09:23.459Z,5.90
2017-11-17T20:11:52.327Z,5.80
2017-11-17T20:14:21.538Z,5.80
2017-11-17T20:16:50.187Z,5.70
2017-11-17T20:19:18.570Z,5.80
2017-11-17T20:21:47.755Z,5.80
2017-11-17T20:24:16.349Z,5.80
2017-11-17T20:26:45.003Z,5.70
2017-11-17T20:29:13.422Z,5.70
2017-11-17T20:31:42.320Z,5.70
2017-11-17T20:34:11.568Z,5.70
2017-11-17T20:36:39.999Z,5.70
2017-11-17T20:39:09.192Z,5.80
2017-11-17T20:41:38.346Z,5.70
2017-11-17T20:44:07.518Z,5.70
2017-11-17T20:46:36.038Z,5.70
2017-11-17T20:49:04.444Z,5.70
2017-11-17T20:51:32.845Z,5.70
2017-11-17T20:54:02.984Z,5.60
2017-11-17T20:56:31.396Z,5.60
2017-11-17T20:58:59.841Z,5.60
2017-11-17T21:01:28.514Z,5.50
2017-11-17T21:03:56.913Z,5.60
2017-11-17T21:06:25.345Z,5.40
2017-11-17T21:08:53.795Z,5.40
2017-11-17T21:11:22.273Z,5.30
2017-11-17T21:13:51.449Z,5.30
2017-11-17T21:16:19.933Z,5.30
2017-11-17T21:18:48.477Z,5.30
2017-11-17T21:21:16.926Z,5.20
2017-11-17T21:23:45.660Z,5.20
2017-11-17T21:26:14.059Z,5.20
2017-11-17T21:28:42.889Z,5.20
2017-11-17T21:31:11.487Z,5.20
2017-11-17T21:33:39.889Z,5.10
2017-11-17T21:36:09.142Z,5.10
2017-11-17T21:38:37.883Z,5.00
2017-11-17T21:41:06.295Z,5.00
2017-11-17T21:43:34.697Z,5.00
2017-11-17T21:46:03.138Z,5.00
2017-11-17T21:48:31.745Z,4.90
2017-11-17T21:51:00.135Z,4.90
2017-11-17T21:53:28.754Z,4.90
2017-11-17T21:55:57.924Z,5.00
2017-11-17T21:58:26.350Z,4.90
2017-11-17T22:00:54.863Z,4.90
2017-11-17T22:03:23.313Z,4.90
2017-11-17T22:05:51.729Z,4.90
2017-11-17T22:08:20.996Z,4.80
2017-11-17T22:10:49.379Z,4.80
2017-11-17T22:13:24.184Z,4.80
2017-11-17T22:15:53.347Z,4.90
2017-11-17T22:18:21.897Z,4.80
2017-11-17T22:20:50.646Z,4.80
2017-11-17T22:23:19.856Z,4.80
2017-11-17T22:25:48.261Z,4.80
2017-11-17T22:28:19.315Z,4.70
2017-11-17T22:30:48.030Z,4.70
2017-11-17T22:33:18.172Z,4.70
2017-11-17T22:35:47.630Z,4.70
2017-11-17T22:38:18.358Z,4.70
2017-11-17T22:40:46.764Z,4.80
2017-11-17T22:43:15.464Z,4.70
2017-11-17T22:45:44.658Z,4.70
2017-11-17T22:48:13.837Z,4.70
2017-11-17T22:50:42.646Z,4.70
2017-11-17T22:53:11.801Z,4.60
2017-11-17T22:55:40.205Z,4.60
2017-11-17T22:58:08.796Z,4.70
2017-11-17T23:00:37.965Z,4.70
2017-11-17T23:03:06.382Z,4.70
2017-11-17T23:05:35.724Z,4.70
2017-11-17T23:08:04.114Z,4.70
2017-11-17T23:10:32.523Z,4.70
2017-11-17T23:13:00.957Z,4.80
2017-11-17T23:15:29.672Z,4.80
2017-11-17T23:17:58.848Z,4.70
2017-11-17T23:20:27.420Z,4.70
2017-11-17T23:22:55.876Z,4.70
2017-11-17T23:25:25.046Z,4.70
2017-11-17T23:27:53.763Z,4.70
2017-11-17T23:30:22.941Z,4.70
2017-11-17T23:32:51.511Z,4.70
2017-11-17T23:35:19.979Z,4.70
2017-11-17T23:37:48.397Z,4.70
2017-11-17T23:40:17.612Z,4.60
2017-11-17T23:42:46.128Z,4.60
2017-11-17T23:45:14.532Z,4.70
2017-11-17T23:47:42.924Z,4.60
2017-11-17T23:50:11.623Z,4.60
2017-11-17T23:52:41.347Z,4.60
2017-11-17T23:55:09.791Z,4.60
2017-11-17T23:57:38.410Z,4.70
